METAR Data
IDs: Format: Raw Decoded Include TAF

Data at: 0522 UTC 24 Sep 2020

KPDX 240453Z 19013KT 9SM -RA SCT018 BKN035 OVC075 16/15 A2989 RMK AO2 RAB23 SLP120 P0005 T01610150 $

KPDX 240520Z 2406/2506 18010KT P6SM VCSH SCT016 BKN040 OVC045
  FM241500 20008KT P6SM -SHRA SCT024 BKN050
  FM242100 23010KT P6SM -SHRA SCT026 BKN070
  FM250300 20005KT P6SM -SHRA SCT030 BKN100